Terminal Aerodrome Forecast
Issued by NWS Quad Cities IA IL

Home | Current Version | Previous Version | Text Only | Print | Product List | Glossary On
Versions: 1 2 3 4 5 6 7 8 9 10 11 12 13 14 15 16 17 18 19 20 21 22 23 24 25 26 27 28 29
000
FTUS43 KDVN 200500
TAFDBQ
TAF
KDBQ 200520Z 2006/2106 20011KT 6SM BR SCT060 BKN250
     FM200900 22010KT 6SM BR VCSH SCT030 BKN080
      TEMPO 2009/2013 5SM -SHRA BR BKN025 OVC035
     FM201300 25011KT P6SM SCT015 BKN030
     FM201700 28012G20KT P6SM SCT050=

USA.gov is the U.S. government's official web portal to all federal, state and local government web resources and services.